createdAt,value
2018-12-24T00:02:22.956Z,10.30
2018-12-24T00:04:51.649Z,10.30
2018-12-24T00:07:20.216Z,10.40
2018-12-24T00:09:48.760Z,10.30
2018-12-24T00:12:17.268Z,10.40
2018-12-24T00:14:45.766Z,10.40
2018-12-24T00:17:14.240Z,10.40
2018-12-24T00:19:42.755Z,10.30
2018-12-24T00:22:11.295Z,10.40
2018-12-24T00:24:39.803Z,10.40
2018-12-24T00:27:08.363Z,10.40
2018-12-24T00:29:36.891Z,10.30
2018-12-24T00:32:05.389Z,10.30
2018-12-24T00:34:33.885Z,10.30
2018-12-24T00:37:02.443Z,10.30
2018-12-24T00:39:31.045Z,10.30
2018-12-24T00:41:59.537Z,10.30
2018-12-24T00:44:28.100Z,10.30
2018-12-24T00:46:56.581Z,10.30
2018-12-24T00:49:25.089Z,10.30
2018-12-24T00:51:53.592Z,10.30
2018-12-24T00:54:22.086Z,10.30
2018-12-24T00:56:50.578Z,10.30
2018-12-24T00:59:19.088Z,10.30
2018-12-24T01:01:48.913Z,10.30
2018-12-24T01:04:17.516Z,10.30
2018-12-24T01:06:46.013Z,10.30
2018-12-24T01:09:14.537Z,10.30
2018-12-24T01:11:43.012Z,10.30
2018-12-24T01:14:11.557Z,10.30
2018-12-24T01:16:40.044Z,10.40
2018-12-24T01:19:08.550Z,10.40
2018-12-24T01:21:37.045Z,10.30
2018-12-24T01:24:05.530Z,10.40
2018-12-24T01:26:34.039Z,10.30
2018-12-24T01:29:02.507Z,10.30
2018-12-24T01:31:31.075Z,10.40
2018-12-24T01:33:59.489Z,10.30
2018-12-24T01:36:28.032Z,10.40
2018-12-24T01:38:56.515Z,10.40
2018-12-24T01:41:25.044Z,10.40
2018-12-24T01:43:53.528Z,10.40
2018-12-24T01:46:22.031Z,10.40
2018-12-24T01:48:50.516Z,10.40
2018-12-24T01:51:19.015Z,10.50
2018-12-24T01:53:47.500Z,10.50
2018-12-24T01:56:16.088Z,10.40
2018-12-24T01:58:44.573Z,10.40
2018-12-24T02:01:13.064Z,10.40
2018-12-24T02:03:41.560Z,10.50
2018-12-24T02:06:10.072Z,10.50
2018-12-24T02:08:38.587Z,10.40
2018-12-24T02:11:07.060Z,10.50
2018-12-24T02:13:35.591Z,10.50
2018-12-24T02:16:04.106Z,10.60
2018-12-24T02:18:32.573Z,10.60
2018-12-24T02:21:01.131Z,10.60
2018-12-24T02:23:29.614Z,10.60
2018-12-24T02:25:58.120Z,10.50
2018-12-24T02:28:26.619Z,9.80
2018-12-24T02:30:55.128Z,8.70
2018-12-24T02:33:23.620Z,8.20
2018-12-24T02:35:52.121Z,7.90
2018-12-24T02:38:20.601Z,7.70
2018-12-24T02:40:49.085Z,7.60
2018-12-24T02:43:17.751Z,7.60
2018-12-24T02:45:46.360Z,7.50
2018-12-24T02:48:14.852Z,7.40
2018-12-24T02:50:43.365Z,7.20
2018-12-24T02:53:11.868Z,7.10
2018-12-24T02:55:40.350Z,7.10
2018-12-24T02:58:08.848Z,7.00
2018-12-24T03:00:37.335Z,6.90
2018-12-24T03:03:05.827Z,6.80
2018-12-24T03:05:34.304Z,6.80
2018-12-24T03:08:02.804Z,6.70
2018-12-24T03:10:31.322Z,6.70
2018-12-24T03:13:02.963Z,6.60
2018-12-24T03:15:30.284Z,6.60
2018-12-24T03:17:58.747Z,6.60
2018-12-24T03:20:27.227Z,6.60
2018-12-24T03:22:55.753Z,6.60
2018-12-24T03:25:24.233Z,6.60
2018-12-24T03:27:52.728Z,6.50
2018-12-24T03:30:21.197Z,6.60
2018-12-24T03:32:51.337Z,6.50
2018-12-24T03:35:19.837Z,6.50
2018-12-24T03:37:48.328Z,6.50
2018-12-24T03:40:16.972Z,6.40
2018-12-24T03:42:45.511Z,6.40
2018-12-24T03:45:13.958Z,6.30
2018-12-24T03:47:42.536Z,6.30
2018-12-24T03:50:11.086Z,6.30
2018-12-24T03:52:39.579Z,6.20
2018-12-24T03:55:08.270Z,6.20
2018-12-24T03:57:36.880Z,6.20
2018-12-24T04:00:06.560Z,6.10
2018-12-24T04:02:35.226Z,6.10
2018-12-24T04:05:03.844Z,6.10
2018-12-24T04:07:32.406Z,6.00
2018-12-24T04:10:00.951Z,6.00
2018-12-24T04:12:29.457Z,5.90
2018-12-24T04:14:57.959Z,5.90
2018-12-24T04:17:26.485Z,5.80
2018-12-24T04:19:54.975Z,5.80
2018-12-24T04:22:23.544Z,5.80
2018-12-24T04:24:52.651Z,5.80
2018-12-24T04:27:21.114Z,5.70
2018-12-24T04:29:49.628Z,5.60
2018-12-24T04:32:18.103Z,5.40
2018-12-24T04:34:46.599Z,5.40
2018-12-24T04:37:15.080Z,5.20
2018-12-24T04:39:43.588Z,5.20
2018-12-24T04:42:12.072Z,5.10
2018-12-24T04:44:40.580Z,5.00
2018-12-24T04:47:09.053Z,5.00
2018-12-24T04:49:37.552Z,4.90
2018-12-24T04:52:06.052Z,4.90
2018-12-24T04:54:34.678Z,4.90
2018-12-24T04:57:03.138Z,4.90
2018-12-24T04:59:31.675Z,4.90
2018-12-24T05:02:00.132Z,4.80
2018-12-24T05:04:28.636Z,4.80
2018-12-24T05:06:57.110Z,4.80
2018-12-24T05:09:25.622Z,4.80
2018-12-24T05:11:54.112Z,4.80
2018-12-24T05:14:22.618Z,4.80
2018-12-24T05:16:51.096Z,4.80
2018-12-24T05:19:19.632Z,4.70
2018-12-24T05:21:48.117Z,4.70
2018-12-24T05:24:16.621Z,4.70
2018-12-24T05:26:45.132Z,4.70
2018-12-24T05:29:13.638Z,4.70
2018-12-24T05:31:42.187Z,4.60
2018-12-24T05:34:10.672Z,4.60
2018-12-24T05:36:39.200Z,4.60
2018-12-24T05:39:07.672Z,4.60
2018-12-24T05:41:36.186Z,4.60
2018-12-24T05:44:04.680Z,4.50
2018-12-24T05:46:33.185Z,4.50
2018-12-24T05:49:01.661Z,4.50
2018-12-24T05:51:30.275Z,4.50
2018-12-24T05:53:58.780Z,4.40
2018-12-24T05:56:27.281Z,4.40
2018-12-24T05:58:55.760Z,4.30
2018-12-24T06:01:24.296Z,4.20
2018-12-24T06:03:52.777Z,4.20
2018-12-24T06:06:21.275Z,4.10
2018-12-24T06:08:49.777Z,4.10
2018-12-24T06:11:18.264Z,4.00
2018-12-24T06:13:46.747Z,4.00
2018-12-24T06:16:15.253Z,4.00
2018-12-24T06:18:43.759Z,3.90
2018-12-24T06:21:12.279Z,3.80
2018-12-24T06:23:40.777Z,3.80
2018-12-24T06:26:09.381Z,3.70
2018-12-24T06:28:37.879Z,3.70
2018-12-24T06:31:06.387Z,3.70
2018-12-24T06:33:34.892Z,3.80
2018-12-24T06:36:03.427Z,3.70
2018-12-24T06:38:31.910Z,3.80
2018-12-24T06:41:00.401Z,3.80
2018-12-24T06:43:28.903Z,3.80
2018-12-24T06:45:57.416Z,3.90
2018-12-24T06:48:25.900Z,3.90
2018-12-24T06:50:54.395Z,3.90
2018-12-24T06:53:22.904Z,3.80
2018-12-24T06:55:51.440Z,3.90
2018-12-24T06:58:19.915Z,3.80
2018-12-24T07:00:48.392Z,3.80
2018-12-24T07:03:16.920Z,3.90
2018-12-24T07:05:45.396Z,3.80
2018-12-24T07:08:14.013Z,3.90
2018-12-24T07:10:42.520Z,3.90
2018-12-24T07:13:11.031Z,3.90
2018-12-24T07:15:39.513Z,3.90
2018-12-24T07:18:08.019Z,3.90
2018-12-24T07:20:36.501Z,3.90
2018-12-24T07:23:04.999Z,3.90
2018-12-24T07:25:33.481Z,4.00
2018-12-24T07:28:01.990Z,3.90
2018-12-24T07:30:30.478Z,4.00
2018-12-24T07:32:58.988Z,4.00
2018-12-24T07:35:27.480Z,4.00
2018-12-24T07:37:56.023Z,4.00
2018-12-24T07:40:24.497Z,4.00
2018-12-24T07:42:53.013Z,4.00
2018-12-24T07:45:21.484Z,4.00
2018-12-24T07:47:49.996Z,4.10
2018-12-24T07:50:18.475Z,4.20
2018-12-24T07:52:46.990Z,4.20
2018-12-24T07:55:15.480Z,4.30
2018-12-24T07:57:44.016Z,4.30
2018-12-24T08:00:12.496Z,4.30
2018-12-24T08:02:41.006Z,4.30
2018-12-24T08:05:09.486Z,4.40
2018-12-24T08:07:37.983Z,4.50
2018-12-24T08:10:06.491Z,4.50
2018-12-24T08:12:34.948Z,4.60
2018-12-24T08:15:03.453Z,4.70
2018-12-24T08:17:31.968Z,4.70
2018-12-24T08:20:00.489Z,4.70
2018-12-24T08:22:29.039Z,4.80
2018-12-24T08:24:57.542Z,4.70
2018-12-24T08:27:26.017Z,4.70
2018-12-24T08:29:54.532Z,4.70
2018-12-24T08:32:23.036Z,4.60
2018-12-24T08:34:51.544Z,4.60
2018-12-24T08:37:20.055Z,4.60
2018-12-24T08:39:48.568Z,4.70
2018-12-24T08:42:17.043Z,4.70
2018-12-24T08:44:45.555Z,4.70
2018-12-24T08:47:14.033Z,4.70
2018-12-24T08:49:42.540Z,4.70
2018-12-24T08:52:11.020Z,4.70
2018-12-24T08:54:39.520Z,4.70
2018-12-24T08:57:08.024Z,4.70
2018-12-24T08:59:36.568Z,4.70
2018-12-24T09:02:05.027Z,4.70
2018-12-24T09:04:33.557Z,4.70
2018-12-24T09:07:02.028Z,4.60
2018-12-24T09:09:30.537Z,4.60
2018-12-24T09:11:59.021Z,4.60
2018-12-24T09:14:27.523Z,4.60
2018-12-24T09:16:56.081Z,4.60
2018-12-24T09:19:24.635Z,4.60
2018-12-24T09:21:53.111Z,4.60
2018-12-24T09:24:21.618Z,4.70
2018-12-24T09:26:50.095Z,4.70
2018-12-24T09:29:18.638Z,4.70
2018-12-24T09:31:47.207Z,4.70
2018-12-24T09:34:15.719Z,4.70
2018-12-24T09:36:44.233Z,4.80
2018-12-24T09:39:12.727Z,4.80
2018-12-24T09:41:41.195Z,4.80
2018-12-24T09:44:09.719Z,4.80
2018-12-24T09:46:38.183Z,4.80
2018-12-24T09:49:06.678Z,4.80
2018-12-24T09:51:35.180Z,4.90
2018-12-24T09:54:03.683Z,5.00
2018-12-24T09:56:32.190Z,5.00
2018-12-24T09:59:00.659Z,5.10
2018-12-24T10:01:29.164Z,5.20
2018-12-24T10:04:02.906Z,5.30
2018-12-24T10:06:27.810Z,5.30
2018-12-24T10:08:56.344Z,5.40
2018-12-24T10:11:24.852Z,5.50
2018-12-24T10:13:53.333Z,5.50
2018-12-24T10:16:21.864Z,5.60
2018-12-24T10:18:50.326Z,5.60
2018-12-24T10:21:18.831Z,5.50
2018-12-24T10:23:47.315Z,5.50
2018-12-24T10:26:15.852Z,5.50
2018-12-24T10:28:44.336Z,5.50
2018-12-24T10:31:12.841Z,5.50
2018-12-24T10:33:41.309Z,5.60
2018-12-24T10:36:09.831Z,5.50
2018-12-24T10:38:38.312Z,5.40
2018-12-24T10:41:07.011Z,5.40
2018-12-24T10:43:35.441Z,5.40
2018-12-24T10:46:03.952Z,5.30
2018-12-24T10:48:32.428Z,5.30
2018-12-24T10:51:01.328Z,5.30
2018-12-24T10:53:29.792Z,5.30
2018-12-24T10:55:58.266Z,5.30
2018-12-24T10:58:26.760Z,5.30
2018-12-24T11:00:55.245Z,5.30
2018-12-24T11:03:23.747Z,5.50
2018-12-24T11:05:52.219Z,5.60
2018-12-24T11:08:20.713Z,5.80
2018-12-24T11:10:49.225Z,5.90
2018-12-24T11:13:17.732Z,5.90
2018-12-24T11:15:46.208Z,5.90
2018-12-24T11:18:14.731Z,6.00
2018-12-24T11:20:43.202Z,6.10
2018-12-24T11:23:11.697Z,6.10
2018-12-24T11:25:40.176Z,6.20
2018-12-24T11:28:08.703Z,6.50
2018-12-24T11:30:37.196Z,6.80
2018-12-24T11:33:05.700Z,6.90
2018-12-24T11:35:34.193Z,7.20
2018-12-24T11:38:02.721Z,7.90
2018-12-24T11:40:31.176Z,8.10
2018-12-24T11:42:59.680Z,8.00
2018-12-24T11:45:33.700Z,8.00
2018-12-24T11:47:58.304Z,7.70
2018-12-24T11:50:26.792Z,7.50
2018-12-24T11:52:55.297Z,7.30
2018-12-24T11:55:23.778Z,7.30
2018-12-24T11:57:52.314Z,7.20
2018-12-24T12:00:20.801Z,7.00
2018-12-24T12:02:49.284Z,6.80
2018-12-24T12:05:17.776Z,6.70
2018-12-24T12:07:46.264Z,6.50
2018-12-24T12:10:14.752Z,6.40
2018-12-24T12:12:43.242Z,6.30
2018-12-24T12:15:13.041Z,6.10
2018-12-24T12:17:41.773Z,6.00
2018-12-24T12:20:10.276Z,6.00
2018-12-24T12:22:38.753Z,6.00
2018-12-24T12:25:07.246Z,6.10
2018-12-24T12:27:35.716Z,6.10
2018-12-24T12:30:06.786Z,6.10
2018-12-24T12:32:35.275Z,6.20
2018-12-24T12:35:03.845Z,6.20
2018-12-24T12:37:32.411Z,6.10
2018-12-24T12:40:00.889Z,6.00
2018-12-24T12:42:29.374Z,6.00
2018-12-24T12:44:57.875Z,5.90
2018-12-24T12:47:26.558Z,6.00
2018-12-24T12:49:55.097Z,6.00
2018-12-24T12:52:23.599Z,6.10
2018-12-24T12:54:52.105Z,6.30
2018-12-24T12:57:20.604Z,6.40
2018-12-24T12:59:49.105Z,6.40
2018-12-24T13:02:18.973Z,6.40
2018-12-24T13:04:47.786Z,6.40
2018-12-24T13:07:16.277Z,6.30
2018-12-24T13:09:44.793Z,6.20
2018-12-24T13:12:13.259Z,6.10
2018-12-24T13:14:41.762Z,6.00
2018-12-24T13:17:10.350Z,5.90
2018-12-24T13:19:38.837Z,6.00
2018-12-24T13:22:07.326Z,5.80
2018-12-24T13:24:35.932Z,5.80
2018-12-24T13:27:04.405Z,5.80
2018-12-24T13:29:32.993Z,5.80
2018-12-24T13:32:01.462Z,5.80
2018-12-24T13:34:29.956Z,5.90
2018-12-24T13:36:58.430Z,5.90
2018-12-24T13:39:28.395Z,6.00
2018-12-24T13:41:56.887Z,6.20
2018-12-24T13:44:25.413Z,6.10
2018-12-24T13:46:53.890Z,5.90
2018-12-24T13:51:10.341Z,5.90
2018-12-24T13:53:42.010Z,5.90
2018-12-24T13:56:08.740Z,5.80
2018-12-24T13:58:37.104Z,5.70
2018-12-24T14:01:05.612Z,5.70
2018-12-24T14:03:34.026Z,5.60
2018-12-24T14:06:02.421Z,5.50
2018-12-24T14:08:30.784Z,5.40
2018-12-24T14:10:59.186Z,5.20
2018-12-24T14:13:27.553Z,5.10
2018-12-24T14:15:55.957Z,5.10
